Austin Reinauer — WCX8055 — position and weather

sailwx.info

Track history (hours):
 
Tides and Currents Weather Stations Pressure Air Temp Water Temp Dewpoint Dewpoint Depression Visibility Wind Speed Wind Dir Waves Ship Positions

Austin Reinauer

Owner: REINAUER TRANSPORTATION CO, LP, STATEN ISLAND, NY. More information available from US FCC via Universal Licensing System and Coast Guard Vessel Documentation Center.

Last reported at 2016-Aug-25 03:10 UTC. Time now 2016-Aug-25 09:45 UTC.
Position N 40°34' W 074°13'.

Length 33 m; draft 6.7 m.

Type: Tug. MMSI: 366739920.

Date/timePositionNaut miles runAvg speedWind from/ knotsBaromVisibWave heightAir tempDewpointWater temp
2016-Aug-25 03:10N 40°34' W 074°13'2 0.2
2016-Aug-24 16:08N 40°36' W 074°12'4 6.7
2016-Aug-24 15:34N 40°39' W 074°08'0 0.4
2016-Aug-24 14:33N 40°38' W 074°08'0 0.0
2016-Aug-24 13:33N 40°38' W 074°08'0 0.0
2016-Aug-24 12:33N 40°38' W 074°08'0 0.0
2016-Aug-24 11:31N 40°38' W 074°08'0 0.0
2016-Aug-24 10:34N 40°38' W 074°08'2 1.1
2016-Aug-24 08:33N 40°39' W 074°10'7 6.6
2016-Aug-24 07:33N 40°41' W 074°02'12 0.3
2016-Aug-22 17:25N 40°48' W 073°50'7 7.7
2016-Aug-22 16:33N 40°45' W 073°58'6 5.6
2016-Aug-22 15:34N 40°41' W 074°02'3 2.7
2016-Aug-22 14:34N 40°39' W 074°04'1 1.3
2016-Aug-22 13:34N 40°39' W 074°05'4 3.7
2016-Aug-22 12:27N 40°39' W 074°11'3 0.1
2016-Aug-21 04:30N 40°36' W 074°12'6 6.6
2016-Aug-21 03:33N 40°39' W 074°05'7 7.5
2016-Aug-21 02:33N 40°44' W 073°58'60 3.3
2016-Aug-20 08:33N 41°10' W 072°47'9 8.8
2016-Aug-20 07:33N 41°09' W 072°35'8 8.4
2016-Aug-20 06:33N 41°11' W 072°24'10 8.8
2016-Aug-20 05:26N 41°13' W 072°11'44 9.1
2016-Aug-20 00:34N 41°34' W 071°19'9 8.6
2016-Aug-19 23:33N 41°42' W 071°20'5 2.2
2016-Aug-19 21:19N 41°47' W 071°22'0 0.0
2016-Aug-19 15:24N 41°47' W 071°22'0 0.0
2016-Aug-19 13:24N 41°47' W 071°22'0 0.0
2016-Aug-19 12:12N 41°47' W 071°22'0 0.0
2016-Aug-19 10:24N 41°47' W 071°22'0 0.0
2016-Aug-19 09:33N 41°47' W 071°22'0 0.0
2016-Aug-19 08:33N 41°47' W 071°22'0 0.0
2016-Aug-19 07:33N 41°47' W 071°22'0 0.0
2016-Aug-19 06:33N 41°47' W 071°22'1 0.7
2016-Aug-19 05:34N 41°46' W 071°22'133 7.3
2016-Aug-18 11:24N 40°29' W 073°46'7 8.2
2016-Aug-18 10:33N 40°30' W 073°56'7 7.0
2016-Aug-18 09:33N 40°34' W 074°02'6 6.0
2016-Aug-18 08:33N 40°39' W 074°08'3 3.3
2016-Aug-18 07:31N 40°38' W 074°12'0 0.0
2016-Aug-18 06:31N 40°38' W 074°12'0 0.0
2016-Aug-18 05:31N 40°38' W 074°12'0 0.0
2016-Aug-18 04:31N 40°38' W 074°12'0 0.0
2016-Aug-18 03:25N 40°38' W 074°12'0 0.0
2016-Aug-18 02:31N 40°38' W 074°12'0 0.0
2016-Aug-18 01:13N 40°38' W 074°12'0 0.0
2016-Aug-18 00:31N 40°38' W 074°12'0 0.0
2016-Aug-17 23:31N 40°38' W 074°12'0 0.0
2016-Aug-17 22:31N 40°38' W 074°12'0 0.0
2016-Aug-17 21:31N 40°38' W 074°12'0 0.0
2016-Aug-17 20:31N 40°38' W 074°12'0 0.0
2016-Aug-17 19:31N 40°38' W 074°12'0 0.0
2016-Aug-17 18:31N 40°38' W 074°12'0 0.0
2016-Aug-17 17:31N 40°38' W 074°12'0 0.0
2016-Aug-17 16:31N 40°38' W 074°12'0 0.0
2016-Aug-17 15:25N 40°38' W 074°12'0 0.0
2016-Aug-17 14:28N 40°38' W 074°12'0 0.0
2016-Aug-17 13:25N 40°38' W 074°12'0 0.0
2016-Aug-17 12:25N 40°38' W 074°12'0 0.0
2016-Aug-17 11:31N 40°38' W 074°12'0 0.0
2016-Aug-17 10:34N 40°38' W 074°12'0 0.0
2016-Aug-17 09:31N 40°38' W 074°12'0 0.0
2016-Aug-17 08:30N 40°38' W 074°12'0 0.0
2016-Aug-17 07:30N 40°38' W 074°12'0 0.0
2016-Aug-17 06:18N 40°38' W 074°12'0 0.0
2016-Aug-17 05:30N 40°38' W 074°12'0 0.0
2016-Aug-17 04:30N 40°38' W 074°12'0 0.0
2016-Aug-17 03:33N 40°38' W 074°12'0 0.0
2016-Aug-17 02:30N 40°38' W 074°12'0 0.0
2016-Aug-17 01:30N 40°38' W 074°12'0 0.0
2016-Aug-17 00:25N 40°38' W 074°12'0 0.0
2016-Aug-16 23:31N 40°38' W 074°12'0 0.0
2016-Aug-16 22:25N 40°38' W 074°12'0 0.0
2016-Aug-16 21:31N 40°38' W 074°12'0 0.0
2016-Aug-16 20:24N 40°38' W 074°12'0 0.0
2016-Aug-16 19:30N 40°38' W 074°12'2 1.6
2016-Aug-16 18:33N 40°39' W 074°11'7 6.6
2016-Aug-16 17:32N 40°40' W 074°02'0 0.0
2016-Aug-16 16:32N 40°40' W 074°02'0 0.0
2016-Aug-16 15:32N 40°40' W 074°02'0 0.0
2016-Aug-16 14:32N 40°40' W 074°02'0 0.1
2016-Aug-16 13:32N 40°40' W 074°02'0 0.1
2016-Aug-16 12:31N 40°40' W 074°02'0 0.0
2016-Aug-16 11:31N 40°40' W 074°02'0 0.0
2016-Aug-16 10:31N 40°40' W 074°02'0 0.0
2016-Aug-16 09:31N 40°40' W 074°02'0 0.1
2016-Aug-16 08:31N 40°40' W 074°02'0 0.1
2016-Aug-16 07:31N 40°40' W 074°02'0 0.0
2016-Aug-16 04:31N 40°40' W 074°02'0 0.0
2016-Aug-16 03:31N 40°40' W 074°02'0 0.0
2016-Aug-16 02:31N 40°40' W 074°02'0 0.2
2016-Aug-16 01:31N 40°40' W 074°02'0 0.0
2016-Aug-16 00:28N 40°40' W 074°02'0 0.1
2016-Aug-15 23:31N 40°40' W 074°02'0 0.0
2016-Aug-15 22:31N 40°40' W 074°02'0 0.1
2016-Aug-15 21:31N 40°40' W 074°02'0 0.0
2016-Aug-15 20:33N 40°40' W 074°02'0 0.2
2016-Aug-15 19:33N 40°40' W 074°02'0 0.1
2016-Aug-15 18:33N 40°40' W 074°02'0 0.0
2016-Aug-15 17:33N 40°40' W 074°02'0 0.0
2016-Aug-15 16:33N 40°40' W 074°02'0 0.0
2016-Aug-15 15:33N 40°40' W 074°02'5 4.7
2016-Aug-15 14:33N 40°43' W 073°58'  
Track history (hours):
 
Tides and Currents Weather Stations Pressure Air Temp Water Temp Dewpoint Dewpoint Depression Visibility Wind Speed Wind Dir Waves Ship Positions

Austin Reinauer

Owner: REINAUER TRANSPORTATION CO, LP, STATEN ISLAND, NY. More information available from US FCC via Universal Licensing System and Coast Guard Vessel Documentation Center.

Last reported at 2016-Aug-25 03:10 UTC. Time now 2016-Aug-25 09:45 UTC.
Position N 40°34' W 074°13'.

Length 33 m; draft 6.7 m.

Type: Tug. MMSI: 366739920.

Date/timePositionNaut miles runAvg speedWind from/ knotsBaromVisibWave heightAir tempDewpointWater temp
2016-Aug-25 03:10N 40°34' W 074°13'2 0.2
2016-Aug-24 16:08N 40°36' W 074°12'4 6.7
2016-Aug-24 15:34N 40°39' W 074°08'0 0.4
2016-Aug-24 14:33N 40°38' W 074°08'0 0.0
2016-Aug-24 13:33N 40°38' W 074°08'0 0.0
2016-Aug-24 12:33N 40°38' W 074°08'0 0.0
2016-Aug-24 11:31N 40°38' W 074°08'0 0.0
2016-Aug-24 10:34N 40°38' W 074°08'2 1.1
2016-Aug-24 08:33N 40°39' W 074°10'7 6.6
2016-Aug-24 07:33N 40°41' W 074°02'12 0.3
2016-Aug-22 17:25N 40°48' W 073°50'7 7.7
2016-Aug-22 16:33N 40°45' W 073°58'6 5.6
2016-Aug-22 15:34N 40°41' W 074°02'3 2.7
2016-Aug-22 14:34N 40°39' W 074°04'1 1.3
2016-Aug-22 13:34N 40°39' W 074°05'4 3.7
2016-Aug-22 12:27N 40°39' W 074°11'3 0.1
2016-Aug-21 04:30N 40°36' W 074°12'6 6.6
2016-Aug-21 03:33N 40°39' W 074°05'7 7.5
2016-Aug-21 02:33N 40°44' W 073°58'60 3.3
2016-Aug-20 08:33N 41°10' W 072°47'9 8.8
2016-Aug-20 07:33N 41°09' W 072°35'8 8.4
2016-Aug-20 06:33N 41°11' W 072°24'10 8.8
2016-Aug-20 05:26N 41°13' W 072°11'44 9.1
2016-Aug-20 00:34N 41°34' W 071°19'9 8.6
2016-Aug-19 23:33N 41°42' W 071°20'5 2.2
2016-Aug-19 21:19N 41°47' W 071°22'0 0.0
2016-Aug-19 15:24N 41°47' W 071°22'0 0.0
2016-Aug-19 13:24N 41°47' W 071°22'0 0.0
2016-Aug-19 12:12N 41°47' W 071°22'0 0.0
2016-Aug-19 10:24N 41°47' W 071°22'0 0.0
2016-Aug-19 09:33N 41°47' W 071°22'0 0.0
2016-Aug-19 08:33N 41°47' W 071°22'0 0.0
2016-Aug-19 07:33N 41°47' W 071°22'0 0.0
2016-Aug-19 06:33N 41°47' W 071°22'1 0.7
2016-Aug-19 05:34N 41°46' W 071°22'133 7.3
2016-Aug-18 11:24N 40°29' W 073°46'7 8.2
2016-Aug-18 10:33N 40°30' W 073°56'7 7.0
2016-Aug-18 09:33N 40°34' W 074°02'6 6.0
2016-Aug-18 08:33N 40°39' W 074°08'3 3.3
2016-Aug-18 07:31N 40°38' W 074°12'0 0.0
2016-Aug-18 06:31N 40°38' W 074°12'0 0.0
2016-Aug-18 05:31N 40°38' W 074°12'0 0.0
2016-Aug-18 04:31N 40°38' W 074°12'0 0.0
2016-Aug-18 03:25N 40°38' W 074°12'0 0.0
2016-Aug-18 02:31N 40°38' W 074°12'0 0.0
2016-Aug-18 01:13N 40°38' W 074°12'0 0.0
2016-Aug-18 00:31N 40°38' W 074°12'0 0.0
2016-Aug-17 23:31N 40°38' W 074°12'0 0.0
2016-Aug-17 22:31N 40°38' W 074°12'0 0.0
2016-Aug-17 21:31N 40°38' W 074°12'0 0.0
2016-Aug-17 20:31N 40°38' W 074°12'0 0.0
2016-Aug-17 19:31N 40°38' W 074°12'0 0.0
2016-Aug-17 18:31N 40°38' W 074°12'0 0.0
2016-Aug-17 17:31N 40°38' W 074°12'0 0.0
2016-Aug-17 16:31N 40°38' W 074°12'0 0.0
2016-Aug-17 15:25N 40°38' W 074°12'0 0.0
2016-Aug-17 14:28N 40°38' W 074°12'0 0.0
2016-Aug-17 13:25N 40°38' W 074°12'0 0.0
2016-Aug-17 12:25N 40°38' W 074°12'0 0.0
2016-Aug-17 11:31N 40°38' W 074°12'0 0.0
2016-Aug-17 10:34N 40°38' W 074°12'0 0.0
2016-Aug-17 09:31N 40°38' W 074°12'0 0.0
2016-Aug-17 08:30N 40°38' W 074°12'0 0.0
2016-Aug-17 07:30N 40°38' W 074°12'0 0.0
2016-Aug-17 06:18N 40°38' W 074°12'0 0.0
2016-Aug-17 05:30N 40°38' W 074°12'0 0.0
2016-Aug-17 04:30N 40°38' W 074°12'0 0.0
2016-Aug-17 03:33N 40°38' W 074°12'0 0.0
2016-Aug-17 02:30N 40°38' W 074°12'0 0.0
2016-Aug-17 01:30N 40°38' W 074°12'0 0.0
2016-Aug-17 00:25N 40°38' W 074°12'0 0.0
2016-Aug-16 23:31N 40°38' W 074°12'0 0.0
2016-Aug-16 22:25N 40°38' W 074°12'0 0.0
2016-Aug-16 21:31N 40°38' W 074°12'0 0.0
2016-Aug-16 20:24N 40°38' W 074°12'0 0.0
2016-Aug-16 19:30N 40°38' W 074°12'2 1.6
2016-Aug-16 18:33N 40°39' W 074°11'7 6.6
2016-Aug-16 17:32N 40°40' W 074°02'0 0.0
2016-Aug-16 16:32N 40°40' W 074°02'0 0.0
2016-Aug-16 15:32N 40°40' W 074°02'0 0.0
2016-Aug-16 14:32N 40°40' W 074°02'0 0.1
2016-Aug-16 13:32N 40°40' W 074°02'0 0.1
2016-Aug-16 12:31N 40°40' W 074°02'0 0.0
2016-Aug-16 11:31N 40°40' W 074°02'0 0.0
2016-Aug-16 10:31N 40°40' W 074°02'0 0.0
2016-Aug-16 09:31N 40°40' W 074°02'0 0.1
2016-Aug-16 08:31N 40°40' W 074°02'0 0.1
2016-Aug-16 07:31N 40°40' W 074°02'0 0.0
2016-Aug-16 04:31N 40°40' W 074°02'0 0.0
2016-Aug-16 03:31N 40°40' W 074°02'0 0.0
2016-Aug-16 02:31N 40°40' W 074°02'0 0.2
2016-Aug-16 01:31N 40°40' W 074°02'0 0.0
2016-Aug-16 00:28N 40°40' W 074°02'0 0.1
2016-Aug-15 23:31N 40°40' W 074°02'0 0.0
2016-Aug-15 22:31N 40°40' W 074°02'0 0.1
2016-Aug-15 21:31N 40°40' W 074°02'0 0.0
2016-Aug-15 20:33N 40°40' W 074°02'0 0.2
2016-Aug-15 19:33N 40°40' W 074°02'0 0.1
2016-Aug-15 18:33N 40°40' W 074°02'0 0.0
2016-Aug-15 17:33N 40°40' W 074°02'0 0.0
2016-Aug-15 16:33N 40°40' W 074°02'0 0.0
2016-Aug-15 15:33N 40°40' W 074°02'5 4.7
2016-Aug-15 14:33N 40°43' W 073°58'  

Dump ship's entire track history